createdAt,value
2019-03-10T00:02:18.270Z,3.07
2019-03-10T00:05:05.882Z,2.27
2019-03-10T00:07:33.998Z,4.78
2019-03-10T00:10:02.562Z,2.67
2019-03-10T00:12:30.730Z,6.28
2019-03-10T00:14:58.866Z,2.98
2019-03-10T00:17:26.989Z,4.60
2019-03-10T00:19:55.175Z,4.25
2019-03-10T00:22:23.295Z,3.08
2019-03-10T00:25:10.790Z,4.70
2019-03-10T00:27:38.954Z,3.50
2019-03-10T00:30:08.607Z,3.73
2019-03-10T00:32:36.866Z,4.58
2019-03-10T00:35:05.731Z,4.93
2019-03-10T00:37:33.847Z,2.70
2019-03-10T00:40:21.451Z,4.57
2019-03-10T00:43:08.881Z,4.03
2019-03-10T00:48:57.638Z,2.67
2019-03-10T00:51:45.106Z,2.77
2019-03-10T00:54:13.455Z,2.77
2019-03-10T00:57:00.899Z,5.90
2019-03-10T01:02:31.094Z,4.17
2019-03-10T01:04:59.199Z,3.52
2019-03-10T01:07:46.675Z,2.42
2019-03-10T01:10:34.160Z,3.40
2019-03-10T01:13:02.299Z,4.45
2019-03-10T01:15:49.877Z,2.17
2019-03-10T01:24:21.226Z,3.20
2019-03-10T01:26:49.319Z,2.60
2019-03-10T01:29:17.439Z,2.70
2019-03-10T01:32:04.924Z,2.57
2019-03-10T01:34:52.371Z,3.55
2019-03-10T01:37:20.823Z,2.15
2019-03-10T01:39:48.996Z,1.72
2019-03-10T01:42:17.080Z,2.07
2019-03-10T01:45:04.670Z,4.00
2019-03-10T01:47:52.158Z,1.95
2019-03-10T01:50:20.354Z,3.00
2019-03-10T01:52:48.482Z,3.27
2019-03-10T01:55:16.587Z,3.70
2019-03-10T01:58:04.077Z,2.52
2019-03-10T02:00:51.541Z,3.37
2019-03-10T02:03:20.122Z,2.25
2019-03-10T02:05:48.218Z,2.58
2019-03-10T02:08:35.798Z,3.43
2019-03-10T02:11:03.917Z,3.20
2019-03-10T02:13:32.005Z,2.97
2019-03-10T02:16:00.251Z,2.00
2019-03-10T02:18:28.345Z,2.10
2019-03-10T02:20:56.430Z,2.67
2019-03-10T02:23:24.706Z,2.10
2019-03-10T02:26:12.123Z,3.50
2019-03-10T02:28:40.342Z,1.63
2019-03-10T02:31:08.426Z,1.60
2019-03-10T02:33:55.946Z,3.00
2019-03-10T02:36:24.082Z,2.55
2019-03-10T02:39:11.679Z,2.00
2019-03-10T02:41:39.925Z,3.08
2019-03-10T02:44:27.584Z,1.60
2019-03-10T02:46:55.658Z,2.08
2019-03-10T02:49:43.147Z,1.60
2019-03-10T02:52:11.254Z,2.02
2019-03-10T02:54:39.354Z,2.67
2019-03-10T02:57:26.822Z,2.10
2019-03-10T02:59:54.911Z,1.73
2019-03-10T03:02:23.025Z,1.80
2019-03-10T03:04:51.263Z,2.37
2019-03-10T03:07:38.698Z,2.47
2019-03-10T03:13:08.477Z,2.77
2019-03-10T03:15:55.882Z,1.70
2019-03-10T03:18:24.293Z,2.00
2019-03-10T03:20:52.423Z,1.70
2019-03-10T03:23:20.501Z,1.82
2019-03-10T03:26:07.988Z,3.10
2019-03-10T03:28:36.086Z,1.90
2019-03-10T03:31:04.222Z,3.33
2019-03-10T03:33:51.709Z,1.70
2019-03-10T03:39:32.995Z,1.97
2019-03-10T03:42:01.074Z,1.93
2019-03-10T03:44:29.175Z,1.82
2019-03-10T03:46:57.554Z,1.87
2019-03-10T03:49:25.648Z,3.03
2019-03-10T03:52:13.111Z,1.67
2019-03-10T03:54:41.247Z,1.92
2019-03-10T03:57:09.356Z,2.00
2019-03-10T03:59:37.861Z,1.67
2019-03-10T04:04:57.941Z,3.50
2019-03-10T04:07:45.535Z,1.73
2019-03-10T04:10:13.915Z,1.70
2019-03-10T04:12:41.996Z,2.42
2019-03-10T04:15:10.090Z,1.87
2019-03-10T04:20:12.662Z,1.67
2019-03-10T04:22:40.755Z,1.60
2019-03-10T04:25:08.937Z,2.23
2019-03-10T04:27:37.146Z,2.25
2019-03-10T04:30:06.789Z,2.13
2019-03-10T04:32:54.428Z,1.60
2019-03-10T04:38:34.959Z,1.60
2019-03-10T04:41:03.066Z,1.67
2019-03-10T04:43:31.170Z,2.30
2019-03-10T04:45:59.294Z,1.92
2019-03-10T04:48:27.403Z,1.60
2019-03-10T04:51:14.997Z,1.40
2019-03-10T04:53:43.144Z,2.53
2019-03-10T04:56:15.469Z,2.30
2019-03-10T05:01:20.050Z,3.30
2019-03-10T05:03:48.456Z,2.03
2019-03-10T05:06:16.538Z,1.47
2019-03-10T05:08:44.840Z,2.30
2019-03-10T05:11:12.925Z,1.37
2019-03-10T05:13:41.002Z,2.33
2019-03-10T05:16:09.160Z,1.30
2019-03-10T05:18:37.250Z,1.40
2019-03-10T05:21:05.341Z,1.40
2019-03-10T05:26:09.468Z,1.35
2019-03-10T05:28:41.808Z,1.40
2019-03-10T05:31:29.387Z,1.30
2019-03-10T05:33:57.639Z,1.53
2019-03-10T05:36:25.772Z,2.30
2019-03-10T05:38:54.123Z,1.30
2019-03-10T05:41:22.227Z,1.53
2019-03-10T05:43:50.390Z,2.07
2019-03-10T05:46:18.590Z,2.25
2019-03-10T05:48:46.682Z,2.02
2019-03-10T05:51:14.774Z,1.95
2019-03-10T05:54:02.507Z,1.62
2019-03-10T05:56:30.735Z,1.53
2019-03-10T05:58:58.850Z,1.57
2019-03-10T06:01:27.234Z,1.30
2019-03-10T06:03:55.386Z,2.07
2019-03-10T06:06:23.537Z,3.00
2019-03-10T06:08:51.714Z,1.70
2019-03-10T06:11:39.202Z,2.37
2019-03-10T06:14:07.772Z,2.23
2019-03-10T06:16:35.908Z,3.53
2019-03-10T06:19:04.041Z,3.67
2019-03-10T06:24:25.612Z,2.53
2019-03-10T06:26:53.714Z,1.40
2019-03-10T06:29:21.869Z,1.70
2019-03-10T06:31:50.271Z,3.97
2019-03-10T06:34:18.398Z,1.80
2019-03-10T06:36:46.541Z,1.47
2019-03-10T06:39:15.168Z,1.83
2019-03-10T06:41:43.298Z,1.50
2019-03-10T06:44:11.437Z,2.33
2019-03-10T06:46:39.605Z,1.10
2019-03-10T06:49:07.775Z,2.73
2019-03-10T06:51:35.939Z,1.73
2019-03-10T06:54:04.373Z,1.53
2019-03-10T06:56:32.529Z,1.17
2019-03-10T06:59:00.660Z,1.10
2019-03-10T07:01:28.974Z,2.37
2019-03-10T07:03:57.125Z,2.70
2019-03-10T07:06:25.302Z,1.00
2019-03-10T07:08:53.631Z,1.10
2019-03-10T07:11:21.786Z,1.53
2019-03-10T07:13:49.922Z,1.07
2019-03-10T07:16:18.261Z,1.43
2019-03-10T07:18:46.409Z,2.87
2019-03-10T07:21:14.562Z,1.77
2019-03-10T07:23:42.842Z,1.50
2019-03-10T07:26:11.265Z,2.10
2019-03-10T07:28:58.846Z,2.03
2019-03-10T07:34:20.214Z,1.93
2019-03-10T07:40:15.549Z,2.43
2019-03-10T07:43:02.975Z,2.00
2019-03-10T07:45:35.658Z,1.43
2019-03-10T07:48:05.629Z,1.10
2019-03-10T07:50:44.169Z,2.13
2019-03-10T07:53:25.614Z,2.47
2019-03-10T07:55:57.994Z,1.10
2019-03-10T07:58:45.420Z,2.47
2019-03-10T08:01:15.382Z,1.53
2019-03-10T08:03:50.913Z,1.20
2019-03-10T08:06:20.720Z,1.17
2019-03-10T08:09:08.125Z,1.33
2019-03-10T08:11:40.635Z,1.97
2019-03-10T08:14:10.414Z,1.40
2019-03-10T08:16:56.188Z,2.13
2019-03-10T08:19:25.975Z,1.17
2019-03-10T08:21:58.794Z,1.60
2019-03-10T08:24:46.234Z,2.10
2019-03-10T08:27:16.012Z,2.13
2019-03-10T08:29:48.581Z,1.57
2019-03-10T08:32:18.389Z,1.53
2019-03-10T08:34:50.921Z,1.50
2019-03-10T08:37:23.259Z,2.00
2019-03-10T08:40:04.517Z,2.00
2019-03-10T08:42:39.878Z,1.30
2019-03-10T08:45:15.405Z,1.40
2019-03-10T08:48:02.810Z,2.47
2019-03-10T08:50:32.558Z,1.83
2019-03-10T08:53:04.837Z,1.00
2019-03-10T08:55:34.620Z,1.23
2019-03-10T08:58:21.994Z,1.40
2019-03-10T09:00:51.818Z,2.20
2019-03-10T09:03:39.346Z,1.10
2019-03-10T09:06:11.795Z,1.10
2019-03-10T09:08:50.155Z,0.90
2019-03-10T09:11:22.606Z,1.03
2019-03-10T09:14:04.276Z,1.10
2019-03-10T09:16:36.607Z,1.13
2019-03-10T09:19:06.365Z,1.13
2019-03-10T09:21:38.578Z,1.73
2019-03-10T09:24:11.101Z,1.20
2019-03-10T09:26:43.396Z,1.27
2019-03-10T09:29:25.130Z,1.60
2019-03-10T09:32:12.522Z,2.47
2019-03-10T09:34:44.994Z,1.57
2019-03-10T09:37:20.577Z,1.30
2019-03-10T09:39:50.409Z,1.70
2019-03-10T09:42:26.225Z,1.80
2019-03-10T09:45:01.646Z,2.33
2019-03-10T09:47:37.006Z,2.57
2019-03-10T09:50:08.561Z,1.50
2019-03-10T09:52:54.744Z,2.00
2019-03-10T09:55:24.530Z,2.30
2019-03-10T09:58:00.108Z,2.27
2019-03-10T10:00:29.925Z,1.70
2019-03-10T10:02:59.705Z,1.83
2019-03-10T10:05:29.542Z,2.17
2019-03-10T10:08:11.535Z,1.70
2019-03-10T10:10:41.353Z,1.67
2019-03-10T10:13:33.238Z,2.40
2019-03-10T10:16:02.995Z,2.17
2019-03-10T10:18:41.346Z,2.93
2019-03-10T10:24:22.219Z,2.80
2019-03-10T10:27:08.233Z,2.43
2019-03-10T10:29:38.058Z,1.95
2019-03-10T10:32:13.410Z,1.90
2019-03-10T10:34:43.347Z,2.45
2019-03-10T10:37:13.116Z,2.00
2019-03-10T10:39:54.992Z,1.60
2019-03-10T10:42:27.519Z,2.08
2019-03-10T10:45:05.878Z,1.77
2019-03-10T10:48:00.974Z,1.25
2019-03-10T10:50:31.721Z,1.50
2019-03-10T10:53:04.043Z,1.10
2019-03-10T10:55:33.833Z,1.52
2019-03-10T10:58:15.544Z,1.30
2019-03-10T11:01:20.834Z,1.15
2019-03-10T11:04:07.159Z,1.10
2019-03-10T11:06:45.586Z,1.30
2019-03-10T11:09:21.144Z,1.00
2019-03-10T11:11:50.920Z,0.90
2019-03-10T11:14:38.557Z,1.17
2019-03-10T11:17:24.386Z,0.85
2019-03-10T11:19:59.957Z,0.80
2019-03-10T11:22:29.734Z,1.10
2019-03-10T11:25:11.342Z,0.80
2019-03-10T11:27:55.944Z,0.70
2019-03-10T11:30:31.470Z,0.82
2019-03-10T11:33:01.262Z,1.15
2019-03-10T11:35:31.033Z,1.50
2019-03-10T11:38:03.841Z,1.20
2019-03-10T11:40:36.162Z,0.80
2019-03-10T11:43:11.953Z,1.55
2019-03-10T11:45:44.458Z,1.62
2019-03-10T11:48:16.801Z,1.00
2019-03-10T11:51:04.288Z,1.50
2019-03-10T11:53:36.902Z,1.40
2019-03-10T11:56:06.846Z,1.20
2019-03-10T11:58:36.646Z,1.50
2019-03-10T12:01:12.085Z,1.27
2019-03-10T12:03:50.777Z,1.20
2019-03-10T12:06:23.425Z,1.45
2019-03-10T12:09:09.212Z,1.10
2019-03-10T12:11:37.474Z,1.10
2019-03-10T12:14:05.602Z,1.50
2019-03-10T12:16:33.746Z,0.57
2019-03-10T12:19:02.581Z,0.85
2019-03-10T12:21:30.721Z,0.53
2019-03-10T12:23:58.881Z,1.15
2019-03-10T12:26:27.081Z,1.42
2019-03-10T12:28:55.242Z,0.60
2019-03-10T12:31:23.384Z,1.00
2019-03-10T12:33:51.626Z,1.15
2019-03-10T12:36:19.791Z,1.37
2019-03-10T12:38:47.951Z,0.65
2019-03-10T12:41:16.118Z,1.10
2019-03-10T12:43:44.278Z,0.85
2019-03-10T12:46:12.426Z,0.50
2019-03-10T12:48:40.741Z,1.05
2019-03-10T12:51:08.892Z,3.08
2019-03-10T12:53:37.033Z,0.40
2019-03-10T12:56:05.433Z,0.40
2019-03-10T12:58:36.251Z,0.68
2019-03-10T13:01:06.629Z,0.60
2019-03-10T13:03:34.360Z,0.68
2019-03-10T13:06:02.633Z,0.60
2019-03-10T13:08:30.837Z,0.30
2019-03-10T13:10:59.582Z,0.40
2019-03-10T13:13:27.728Z,0.50
2019-03-10T13:15:55.879Z,0.53
2019-03-10T13:18:24.091Z,0.65
2019-03-10T13:20:52.263Z,0.40
2019-03-10T13:23:20.394Z,0.53
2019-03-10T13:25:48.690Z,0.60
2019-03-10T13:28:16.825Z,0.42
2019-03-10T13:30:44.971Z,0.93
2019-03-10T13:33:13.143Z,0.30
2019-03-10T13:35:41.277Z,0.40
2019-03-10T13:38:10.667Z,0.40
2019-03-10T13:40:39.002Z,0.37
2019-03-10T13:43:07.209Z,0.82
2019-03-10T13:45:35.355Z,0.60
2019-03-10T13:48:03.718Z,0.50
2019-03-10T13:50:31.853Z,0.40
2019-03-10T13:53:00.006Z,1.57
2019-03-10T13:55:28.422Z,0.35
2019-03-10T14:00:35.721Z,0.40
2019-03-10T14:03:03.877Z,0.65
2019-03-10T14:05:32.078Z,0.50
2019-03-10T14:08:00.258Z,2.83
2019-03-10T14:10:28.416Z,0.60
2019-03-10T14:12:56.591Z,1.02
2019-03-10T14:15:24.866Z,0.57
2019-03-10T14:17:53.005Z,0.35
2019-03-10T14:20:21.175Z,0.95
2019-03-10T14:22:49.613Z,0.28
2019-03-10T14:25:17.701Z,0.50
2019-03-10T14:27:45.869Z,0.30
2019-03-10T14:30:15.548Z,0.40
2019-03-10T14:32:43.683Z,0.30
2019-03-10T14:35:11.868Z,0.40
2019-03-10T14:37:40.030Z,1.00
2019-03-10T14:40:18.077Z,0.90
2019-03-10T14:42:46.533Z,0.40
2019-03-10T14:45:16.220Z,0.55
2019-03-10T14:47:44.360Z,0.68
2019-03-10T14:50:14.246Z,1.17
2019-03-10T14:52:43.845Z,0.50
2019-03-10T14:55:13.933Z,0.40
2019-03-10T14:57:42.371Z,0.85
2019-03-10T15:00:13.726Z,0.47
2019-03-10T15:02:41.867Z,1.07
2019-03-10T15:05:10.062Z,0.55
2019-03-10T15:07:38.238Z,2.47
2019-03-10T15:10:08.167Z,0.90
2019-03-10T15:12:36.303Z,0.50
2019-03-10T15:15:06.242Z,3.92
2019-03-10T15:17:34.379Z,0.60
2019-03-10T15:20:02.506Z,1.92
2019-03-10T15:22:30.796Z,0.72
2019-03-10T15:24:58.925Z,1.20
2019-03-10T15:27:27.078Z,2.62
2019-03-10T15:29:55.514Z,3.25
2019-03-10T15:32:23.645Z,1.37
2019-03-10T15:34:51.794Z,2.00
2019-03-10T15:37:20.091Z,1.42
2019-03-10T15:39:48.221Z,1.25
2019-03-10T15:42:16.356Z,1.95
2019-03-10T15:44:44.543Z,2.12
2019-03-10T15:47:12.692Z,2.80
2019-03-10T15:49:40.832Z,1.30
2019-03-10T15:52:18.030Z,1.10
2019-03-10T15:54:46.401Z,3.83
2019-03-10T15:57:14.544Z,1.50
2019-03-10T15:59:42.754Z,3.70
2019-03-10T16:02:10.894Z,0.90
2019-03-10T16:04:39.038Z,1.00
2019-03-10T16:07:07.362Z,1.37
2019-03-10T16:09:35.517Z,2.05
2019-03-10T16:12:03.650Z,1.98
2019-03-10T16:14:31.910Z,2.37
2019-03-10T16:17:00.051Z,1.75
2019-03-10T16:19:28.203Z,1.90
2019-03-10T16:21:56.407Z,1.82
2019-03-10T16:24:24.561Z,1.20
2019-03-10T16:26:52.694Z,2.10
2019-03-10T16:29:20.887Z,1.12
2019-03-10T16:31:49.035Z,1.75
2019-03-10T16:34:17.174Z,1.55
2019-03-10T16:36:45.538Z,2.52
2019-03-10T16:39:13.665Z,1.67
2019-03-10T16:41:41.834Z,2.40
2019-03-10T16:44:10.037Z,1.95
2019-03-10T16:46:39.262Z,2.17
2019-03-10T16:49:07.591Z,4.37
2019-03-10T16:51:35.920Z,2.85
2019-03-10T16:54:04.213Z,2.08
2019-03-10T16:56:32.382Z,2.85
2019-03-10T16:59:00.739Z,3.27
2019-03-10T17:01:28.964Z,1.92
2019-03-10T17:03:57.168Z,4.65
2019-03-10T17:06:25.322Z,3.95
2019-03-10T17:08:53.476Z,4.40
2019-03-10T17:11:21.678Z,3.98
2019-03-10T17:13:50.154Z,2.92
2019-03-10T17:16:18.315Z,2.47
2019-03-10T17:18:46.506Z,6.42
2019-03-10T17:21:14.861Z,2.85
2019-03-10T17:23:43.021Z,4.15
2019-03-10T17:26:11.212Z,4.58
2019-03-10T17:28:39.746Z,6.97
2019-03-10T17:31:07.893Z,3.45
2019-03-10T17:33:36.017Z,5.40
2019-03-10T17:36:04.298Z,4.85
2019-03-10T17:38:32.434Z,5.72
2019-03-10T17:41:00.584Z,4.67
2019-03-10T17:43:28.902Z,4.45
2019-03-10T17:45:57.037Z,5.62
2019-03-10T17:48:25.192Z,6.05
2019-03-10T17:50:53.369Z,4.63
2019-03-10T17:53:21.536Z,8.03
2019-03-10T17:55:49.670Z,5.42
2019-03-10T17:58:17.965Z,5.97
2019-03-10T18:00:46.134Z,6.08
2019-03-10T18:03:14.530Z,6.65
2019-03-10T18:05:42.702Z,5.47
2019-03-10T18:08:10.876Z,7.28
2019-03-10T18:10:39.010Z,4.83
2019-03-10T18:13:07.306Z,7.20
2019-03-10T18:15:35.434Z,6.17
2019-03-10T18:18:03.602Z,5.97
2019-03-10T18:20:31.808Z,4.60
2019-03-10T18:22:59.955Z,4.12
2019-03-10T18:25:28.117Z,4.55
2019-03-10T18:27:56.302Z,3.58
2019-03-10T18:30:27.431Z,7.28
2019-03-10T18:32:55.561Z,4.70
2019-03-10T18:35:23.733Z,6.05
2019-03-10T18:37:51.892Z,4.78
2019-03-10T18:40:21.586Z,5.37
2019-03-10T18:42:49.774Z,4.62
2019-03-10T18:45:18.306Z,4.45
2019-03-10T18:47:46.458Z,7.05
2019-03-10T18:50:15.706Z,5.03
2019-03-10T18:52:43.856Z,3.92
2019-03-10T18:55:13.288Z,5.83
2019-03-10T18:57:41.783Z,5.70
2019-03-10T19:00:29.000Z,4.58
2019-03-10T19:02:57.237Z,4.37
2019-03-10T19:05:25.379Z,4.83
2019-03-10T19:07:53.520Z,9.38
2019-03-10T19:10:21.930Z,4.43
2019-03-10T19:12:50.067Z,5.00
2019-03-10T19:15:21.665Z,3.63
2019-03-10T19:17:49.949Z,4.20
2019-03-10T19:20:18.105Z,3.50
2019-03-10T19:22:46.249Z,4.37
2019-03-10T19:25:15.423Z,6.37
2019-03-10T19:27:43.746Z,5.33
2019-03-10T19:30:15.905Z,5.60
2019-03-10T19:32:44.082Z,2.67
2019-03-10T19:35:12.293Z,5.60
2019-03-10T19:37:40.466Z,4.53
2019-03-10T19:40:13.205Z,3.35
2019-03-10T19:42:41.357Z,2.83
2019-03-10T19:45:10.777Z,4.05
2019-03-10T19:47:38.930Z,2.90
2019-03-10T19:50:08.595Z,3.70
2019-03-10T19:52:36.845Z,4.43
2019-03-10T19:55:06.898Z,4.87
2019-03-10T19:57:35.017Z,3.80
2019-03-10T20:00:04.413Z,4.77
2019-03-10T20:02:32.582Z,2.07
2019-03-10T20:05:00.687Z,2.47
2019-03-10T20:07:28.794Z,3.27
2019-03-10T20:09:56.937Z,3.87
2019-03-10T20:12:25.034Z,1.80
2019-03-10T20:14:53.167Z,4.83
2019-03-10T20:17:21.379Z,3.20
2019-03-10T20:19:49.470Z,2.20
2019-03-10T20:22:17.566Z,3.22
2019-03-10T20:24:45.729Z,3.40
2019-03-10T20:27:13.855Z,3.20
2019-03-10T20:29:42.035Z,2.37
2019-03-10T20:32:14.185Z,4.17
2019-03-10T20:34:40.194Z,1.93
2019-03-10T20:37:08.354Z,0.90
2019-03-10T20:39:36.731Z,1.00
2019-03-10T20:42:05.713Z,4.57
2019-03-10T20:44:33.931Z,2.80
2019-03-10T20:47:02.094Z,2.00
2019-03-10T20:49:30.322Z,1.33
2019-03-10T20:51:58.474Z,1.43
2019-03-10T20:54:26.802Z,4.57
2019-03-10T20:56:54.934Z,1.80
2019-03-10T20:59:23.060Z,2.53
2019-03-10T21:01:51.284Z,1.73
2019-03-10T21:04:19.437Z,1.27
2019-03-10T21:06:47.690Z,3.87
2019-03-10T21:09:15.861Z,3.13
2019-03-10T21:11:44.018Z,1.53
2019-03-10T21:14:12.202Z,1.77
2019-03-10T21:16:40.459Z,3.20
2019-03-10T21:19:08.606Z,1.67
2019-03-10T21:21:36.728Z,1.67
2019-03-10T21:24:04.909Z,3.70
2019-03-10T21:26:33.069Z,1.23
2019-03-10T21:29:03.570Z,3.20
2019-03-10T21:31:31.083Z,3.20
2019-03-10T21:33:59.226Z,3.47
2019-03-10T21:36:27.361Z,1.97
2019-03-10T21:38:55.686Z,4.37
2019-03-10T21:41:23.880Z,1.13
2019-03-10T21:43:52.201Z,0.87
2019-03-10T21:46:20.473Z,1.00
2019-03-10T21:48:48.629Z,2.00
2019-03-10T21:51:19.081Z,0.50
2019-03-10T21:53:46.793Z,2.00
2019-03-10T21:56:14.924Z,1.10
2019-03-10T21:58:43.057Z,0.50
2019-03-10T22:01:11.226Z,0.97
2019-03-10T22:03:39.363Z,1.10
2019-03-10T22:06:07.574Z,0.60
2019-03-10T22:08:35.904Z,0.40
2019-03-10T22:11:04.086Z,0.73
2019-03-10T22:13:32.237Z,1.07
2019-03-10T22:16:00.416Z,0.87
2019-03-10T22:18:28.607Z,0.87
2019-03-10T22:20:56.731Z,0.43
2019-03-10T22:23:25.002Z,1.77
2019-03-10T22:25:53.143Z,0.57
2019-03-10T22:28:21.304Z,1.00
2019-03-10T22:30:49.493Z,0.90
2019-03-10T22:33:17.625Z,0.53
2019-03-10T22:35:45.777Z,0.50
2019-03-10T22:38:15.362Z,0.50
2019-03-10T22:40:43.726Z,0.70
2019-03-10T22:43:11.910Z,1.50
2019-03-10T22:45:40.126Z,1.60
2019-03-10T22:48:08.281Z,1.07
2019-03-10T22:50:36.411Z,0.67
2019-03-10T22:53:04.718Z,1.37
2019-03-10T22:55:32.877Z,0.83
2019-03-10T22:58:01.006Z,2.33
2019-03-10T23:00:31.114Z,1.73
2019-03-10T23:02:59.225Z,1.07
2019-03-10T23:05:27.359Z,2.90
2019-03-10T23:07:55.741Z,0.70
2019-03-10T23:10:23.975Z,1.03
2019-03-10T23:12:52.077Z,0.87
2019-03-10T23:15:20.443Z,1.17
2019-03-10T23:17:48.546Z,1.10
2019-03-10T23:20:16.703Z,1.70
2019-03-10T23:22:44.862Z,0.73
2019-03-10T23:25:13.032Z,0.50
2019-03-10T23:27:41.206Z,0.77
2019-03-10T23:30:13.841Z,0.83
2019-03-10T23:32:41.950Z,2.27
2019-03-10T23:35:10.153Z,0.50
2019-03-10T23:37:38.444Z,0.43
2019-03-10T23:40:08.452Z,0.73
2019-03-10T23:42:36.590Z,0.70
2019-03-10T23:45:05.822Z,1.10
2019-03-10T23:47:35.052Z,0.57
2019-03-10T23:50:04.046Z,0.50
2019-03-10T23:52:32.260Z,1.13
2019-03-10T23:55:00.385Z,1.00
2019-03-10T23:57:28.543Z,0.60
2019-03-10T23:59:56.763Z,0.50
